Time;durP1;ratioP1;P1;durP2;ratioP2;P2;SDS_P1;SDS_P2;PMS_P1;PMS_P2;Temp;Humidity;BMP_temperature;BMP_pressure;BME280_temperature;BME280_humidity;BME280_pressure;Samples;Min_cycle;Max_cycle;Signal;HPM_P1;HPM_P2
2022/09/15 00:12:16;;;;;;;17.48;10.95;;;;;;;16.42;83.58;98739.72;30734348;28;115505;-63
2022/09/15 00:27:16;;;;;;;107.32;69.45;;;;;;;16.28;83.24;98704.28;30734464;28;114509;-63
2022/09/15 00:42:18;;;;;;;15.65;11.40;;;;;;;16.03;83.45;98697.44;30716590;28;109717;-64
2022/09/15 00:57:30;;;;;;;13.03;9.53;;;;;;;15.97;84.21;98724.44;30618312;28;96995;-61
2022/09/15 01:12:30;;;;;;;;;;;;;;;15.98;84.00;98726.06;30611251;28;97579;-65
2022/09/15 01:28:13;;;;;;;10.32;7.63;;;;;;;15.96;84.19;98712.88;30616986;28;97694;-63
2022/09/15 01:43:15;;;;;;;12.70;8.93;;;;;;;15.88;83.53;98708.72;30628462;28;96765;-63
2022/09/15 01:58:16;;;;;;;10.70;8.13;;;;;;;15.77;83.89;98706.06;30675724;28;96670;-62
2022/09/15 02:13:24;;;;;;;10.45;8.65;;;;;;;15.74;84.24;98710.03;30702577;28;97251;-63
2022/09/15 02:28:28;;;;;;;14.63;10.20;;;;;;;15.76;84.29;98737.47;30723636;28;96701;-67
2022/09/15 02:43:29;;;;;;;15.70;11.80;;;;;;;15.72;84.47;98744.38;30743028;28;97335;-67
2022/09/15 02:58:30;;;;;;;17.00;12.23;;;;;;;15.69;84.30;98737.63;30651696;28;96823;-63
2022/09/15 03:13:32;;;;;;;21.40;13.93;;;;;;;15.65;84.15;98730.25;30622199;28;97108;-66
2022/09/15 03:28:33;;;;;;;16.15;11.30;;;;;;;15.62;84.01;98754.91;30618027;28;97549;-63
2022/09/15 03:43:35;;;;;;;9.77;7.70;;;;;;;15.40;83.74;98785.06;30612335;28;97234;-65
2022/09/15 03:58:35;;;;;;;7.33;5.57;;;;;;;15.19;83.34;98827.53;30682252;28;97375;-68
2022/09/15 04:13:37;;;;;;;10.18;5.70;;;;;;;14.99;83.19;98819.84;30631083;28;96872;-68
2022/09/15 04:28:39;;;;;;;9.00;5.37;;;;;;;14.83;83.85;98840.13;30605515;28;96906;-68
2022/09/15 04:43:41;;;;;;;7.77;4.97;;;;;;;14.76;83.46;98839.41;30608918;28;96768;-64
2022/09/15 04:58:48;;;;;;;10.00;4.77;;;;;;;14.66;83.50;98868.66;30718346;28;96950;-65
2022/09/15 05:13:49;;;;;;;12.37;6.67;;;;;;;14.56;83.35;98878.00;30729918;28;96813;-64
2022/09/15 05:28:50;;;;;;;9.90;6.40;;;;;;;14.55;82.90;98876.38;30729503;28;97209;-67
2022/09/15 05:43:52;;;;;;;10.07;6.30;;;;;;;14.50;83.17;98895.03;30727224;28;96999;-67
2022/09/15 05:58:52;;;;;;;10.63;6.93;;;;;;;14.95;82.87;98892.94;30727234;28;96761;-68
2022/09/15 06:13:53;;;;;;;14.02;6.65;;;;;;;15.47;82.51;98895.75;30731050;28;101842;-68
2022/09/15 06:28:55;;;;;;;11.15;7.13;;;;;;;16.24;81.19;98902.78;30745786;28;96795;-67
2022/09/15 06:43:56;;;;;;;8.93;4.57;;;;;;;16.46;79.91;98902.13;30742734;28;96668;-67
2022/09/15 06:58:58;;;;;;;9.68;3.55;;;;;;;17.06;79.38;98930.38;30742340;28;108631;-65
2022/09/15 07:13:58;;;;;;;11.67;4.07;;;;;;;17.64;77.41;98934.75;30742937;28;98209;-65
2022/09/15 07:29:02;;;;;;;7.05;2.92;;;;;;;19.01;76.73;98957.44;30755534;28;96728;-67
2022/09/15 07:44:06;;;;;;;8.53;2.70;;;;;;;19.64;73.28;98976.56;30736678;28;96728;-67
2022/09/15 07:59:06;;;;;;;5.23;2.87;;;;;;;20.32;67.23;99010.22;30734727;28;97001;-68
2022/09/15 08:14:07;;;;;;;8.02;2.60;;;;;;;20.90;64.27;99023.72;30734806;28;96676;-67
2022/09/15 08:29:08;;;;;;;11.90;2.57;;;;;;;21.32;64.00;99011.84;30746858;28;96769;-63
2022/09/15 08:44:14;;;;;;;7.33;2.40;;;;;;;23.49;59.47;99001.06;30731607;28;96715;-65
2022/09/15 08:59:17;;;;;;;5.77;2.23;;;;;;;24.49;56.78;98993.25;30728887;28;96685;-67
2022/09/15 09:14:23;;;;;;;6.80;2.43;;;;;;;27.15;48.05;98985.22;30729442;28;96893;-68
2022/09/15 09:29:38;;;;;;;8.57;1.80;;;;;;;23.55;49.44;98990.94;30729201;28;96708;-67
2022/09/15 09:44:39;;;;;;;6.10;2.00;;;;;;;20.61;51.39;98987.09;30728611;28;97031;-67
2022/09/15 09:59:42;;;;;;;11.53;2.70;;;;;;;19.63;54.58;98996.56;30748406;28;96684;-67
2022/09/15 10:14:44;;;;;;;5.67;2.47;;;;;;;20.58;54.38;98981.38;30746226;28;97557;-67
2022/09/15 10:29:45;;;;;;;7.07;1.97;;;;;;;22.15;51.76;98982.78;30741162;28;96719;-67
2022/09/15 10:44:53;;;;;;;5.70;2.00;;;;;;;22.04;50.52;98964.94;30680383;28;97478;-64
2022/09/15 10:59:58;;;;;;;8.97;2.00;;;;;;;23.38;47.87;98965.00;30630883;28;96878;-64
2022/09/15 11:15:27;;;;;;;7.57;1.97;;;;;;;25.51;43.59;98953.91;30725773;28;102209;-64
2022/09/15 11:30:36;;;;;;;7.53;1.90;;;;;;;24.31;44.52;98951.25;30729978;28;96917;-66
2022/09/15 11:45:44;;;;;;;7.30;2.13;;;;;;;22.25;46.45;98947.50;30722544;28;97092;-65
2022/09/15 12:00:53;;;;;;;4.17;1.70;;;;;;;20.70;48.60;98930.56;30726961;28;97155;-68
2022/09/15 12:15:54;;;;;;;5.00;2.10;;;;;;;19.71;51.32;98936.63;30733217;28;96677;-67
2022/09/15 12:31:10;;;;;;;7.43;1.70;;;;;;;19.03;52.41;98928.31;30732208;28;97524;-64
2022/09/15 12:46:17;;;;;;;4.73;2.20;;;;;;;18.81;53.86;98914.84;30730831;28;97536;-64
2022/09/15 13:01:17;;;;;;;7.00;3.33;;;;;;;18.47;54.91;98899.69;30729689;28;96788;-66
2022/09/15 13:16:26;;;;;;;7.72;3.05;;;;;;;18.41;55.99;98898.84;30730799;28;96653;-70
2022/09/15 13:31:44;;;;;;;7.50;2.70;;;;;;;18.91;55.80;98899.59;30746622;28;96785;-65
2022/09/15 13:47:03;;;;;;;5.30;2.70;;;;;;;18.98;55.44;98898.56;30748237;28;96750;-68
2022/09/15 14:02:07;;;;;;;6.90;3.07;;;;;;;18.73;55.76;98891.84;30728718;28;96777;-66
2022/09/15 14:17:23;;;;;;;7.00;2.47;;;;;;;18.21;56.59;98880.53;30644592;28;97497;-70
2022/09/15 14:32:26;;;;;;;5.27;2.50;;;;;;;17.92;57.57;98896.09;30640105;28;97499;-68
2022/09/15 14:47:27;;;;;;;5.27;2.40;;;;;;;17.75;57.50;98877.25;30622078;28;97251;-64
2022/09/15 15:02:33;;;;;;;4.72;2.25;;;;;;;17.72;57.26;98869.69;30709079;28;97389;-66
2022/09/15 15:17:35;;;;;;;5.80;2.30;;;;;;;17.86;57.54;98879.00;30633497;28;96754;-69
2022/09/15 15:32:35;;;;;;;5.47;2.30;;;;;;;18.19;56.68;98866.53;30611233;28;97334;-68
2022/09/15 15:47:36;;;;;;;5.97;1.77;;;;;;;18.13;55.91;98883.69;30606888;28;99601;-63
2022/09/15 16:02:36;;;;;;;6.88;1.92;;;;;;;17.37;56.80;98881.59;30604893;28;98805;-65
2022/09/15 16:17:36;;;;;;;7.68;2.08;;;;;;;16.98;58.26;98889.63;30614306;28;118559;-65
2022/09/15 16:32:38;;;;;;;7.80;2.35;;;;;;;16.58;59.25;98885.94;30606047;28;97345;-65
2022/09/15 16:47:39;;;;;;;5.50;2.03;;;;;;;16.30;60.25;98900.22;30599886;28;97859;-64
2022/09/15 17:02:39;;;;;;;8.43;2.30;;;;;;;16.07;61.16;98901.91;30608842;28;116890;-64
2022/09/15 17:17:39;;;;;;;4.72;2.35;;;;;;;15.94;62.31;98920.97;30641807;28;106962;-68
2022/09/15 17:32:40;;;;;;;7.93;2.40;;;;;;;15.77;62.56;98928.91;30642017;28;113971;-67
2022/09/15 17:47:40;;;;;;;4.40;2.13;;;;;;;15.44;63.56;98936.50;30658785;28;97303;-68
2022/09/15 18:02:43;;;;;;;8.43;1.92;;;;;;;15.42;64.19;98949.34;30656944;28;110900;-63
2022/09/15 18:17:43;;;;;;;;;;;;;;;15.37;64.69;98970.69;30671941;28;96714;-66
2022/09/15 18:32:44;;;;;;;4.88;1.50;;;;;;;15.18;64.25;98976.13;30624683;28;97529;-68
2022/09/15 18:47:49;;;;;;;5.25;1.80;;;;;;;15.04;64.60;98982.75;30624429;28;96756;-69
2022/09/15 19:02:56;;;;;;;4.00;1.43;;;;;;;14.80;64.43;98988.00;30621852;28;96572;-68
2022/09/15 19:17:56;;;;;;;5.10;2.10;;;;;;;14.34;65.50;99002.81;30619007;28;97487;-69
2022/09/15 19:32:56;;;;;;;5.15;1.73;;;;;;;14.08;66.30;99014.63;30617785;28;117516;-68
2022/09/15 19:47:57;;;;;;;3.33;1.83;;;;;;;13.68;67.17;99010.47;30618934;28;97439;-69
2022/09/15 20:02:57;;;;;;;5.97;2.40;;;;;;;13.38;68.15;99016.47;30617529;28;114752;-66
2022/09/15 20:17:57;;;;;;;4.80;2.42;;;;;;;13.16;69.34;99029.34;30679525;28;108450;-66
2022/09/15 20:32:58;;;;;;;6.28;2.40;;;;;;;13.02;69.77;99029.41;30731437;28;109499;-66
2022/09/15 20:47:58;;;;;;;8.77;2.40;;;;;;;12.80;70.48;99025.44;30706512;28;97152;-70
2022/09/15 21:02:58;;;;;;;3.70;2.30;;;;;;;12.75;70.68;99018.06;30635576;28;98074;-69
2022/09/15 21:18:00;;;;;;;8.23;2.38;;;;;;;12.85;71.19;99026.44;30655708;28;110188;-68
2022/09/15 21:33:00;;;;;;;3.13;1.83;;;;;;;12.70;71.10;99041.94;30639211;28;97066;-69
2022/09/15 21:48:01;;;;;;;5.20;2.58;;;;;;;12.54;71.57;99043.22;30616571;28;100175;-68
2022/09/15 22:03:01;;;;;;;6.45;2.38;;;;;;;12.34;71.81;99056.63;30634507;28;97001;-75
2022/09/15 22:18:02;;;;;;;3.85;2.00;;;;;;;12.24;72.14;99075.75;30737430;28;110260;-69
2022/09/15 22:33:03;;;;;;;4.07;1.80;;;;;;;12.12;72.21;99082.78;30732738;28;97306;-72
2022/09/15 22:48:03;;;;;;;3.17;1.67;;;;;;;12.14;73.07;99094.06;30730638;28;97595;-63
2022/09/15 23:03:04;;;;;;;5.07;1.80;;;;;;;12.40;72.47;99103.88;30742190;28;101025;-64
2022/09/15 23:18:05;;;;;;;2.63;1.47;;;;;;;12.58;72.10;99095.19;30742804;28;96754;-69
2022/09/15 23:33:05;;;;;;;7.07;1.55;;;;;;;12.71;71.22;99094.31;30702296;28;96795;-63
2022/09/15 23:48:07;;;;;;;3.47;1.90;;;;;;;12.76;71.22;99097.19;30700521;28;96830;-65
